CONTEST STATUS - Updated: SUN ... 17-FEB-19 @ 6:40 PM EST

Winter '18 / '19 - Snowfall Forecast Contests


20th Annual 'Regular Season' Snowfall Forecast Contest

Interim Standings, as of Snow Storm #3
Details here

Snow Storm #5
Possible 'Call for Forecasts' MON ... 18-FEB-19

Snow Storm #4
FINAL Results here

Snow Storm #3
FINAL Results here

---
18th Annual 'Season-total' Snowfall Forecast Contest
Deadline for entries has passed.
Forecasts here
Verification period: 01-DEC-18 thru 31-MAR-19

---------------------------------------------------------
Winter '17 / '18 - Snowfall Forecast Contests
---------------------------------------------------------
19th Annual 'Regular Season'
FINAL results here

---
17th Annual 'Season-total'
FINAL results here

Tuesday, March 20, 2018

Winter '17 / '18 - Snow Storm #8: Front-end +TSSN

Blacksburg ... VA
INVOF Roanoke (ROA)

METAR KBCB 210135Z AUTO 05007KT 1/2SM +VCTSSN OVC006 00/00 A2959 RMK AO2 LTG DSNT SE

No comments: